sensor_id;sensor_type;location;lat;lon;timestamp;P1;durP1;ratioP1;P2;durP2;ratioP2
6019;SDS011;3038;51.122;6.840;2022-07-21T00:01:49;14.10;;;11.70;;
6019;SDS011;3038;51.122;6.840;2022-07-21T00:04:15;11.27;;;10.30;;
6019;SDS011;3038;51.122;6.840;2022-07-21T00:06:41;12.70;;;11.53;;
6019;SDS011;3038;51.122;6.840;2022-07-21T00:09:07;12.93;;;11.77;;
6019;SDS011;3038;51.122;6.840;2022-07-21T00:11:34;12.27;;;11.13;;
6019;SDS011;3038;51.122;6.840;2022-07-21T00:13:59;11.93;;;10.93;;
6019;SDS011;3038;51.122;6.840;2022-07-21T00:16:25;10.80;;;10.00;;
6019;SDS011;3038;51.122;6.840;2022-07-21T00:18:50;11.70;;;10.70;;
6019;SDS011;3038;51.122;6.840;2022-07-21T00:21:16;11.03;;;10.23;;
6019;SDS011;3038;51.122;6.840;2022-07-21T00:23:41;11.67;;;10.57;;
6019;SDS011;3038;51.122;6.840;2022-07-21T00:26:06;11.77;;;10.70;;
6019;SDS011;3038;51.122;6.840;2022-07-21T00:28:32;12.37;;;11.37;;
6019;SDS011;3038;51.122;6.840;2022-07-21T00:30:57;11.30;;;10.20;;
6019;SDS011;3038;51.122;6.840;2022-07-21T00:33:23;12.63;;;11.60;;
6019;SDS011;3038;51.122;6.840;2022-07-21T00:35:48;12.80;;;11.70;;
6019;SDS011;3038;51.122;6.840;2022-07-21T00:38:14;12.30;;;11.30;;
6019;SDS011;3038;51.122;6.840;2022-07-21T00:40:39;11.00;;;10.10;;
6019;SDS011;3038;51.122;6.840;2022-07-21T00:43:04;13.00;;;11.90;;
6019;SDS011;3038;51.122;6.840;2022-07-21T00:45:30;13.10;;;12.00;;
6019;SDS011;3038;51.122;6.840;2022-07-21T00:47:55;13.10;;;12.00;;
6019;SDS011;3038;51.122;6.840;2022-07-21T00:50:21;13.10;;;11.87;;
6019;SDS011;3038;51.122;6.840;2022-07-21T00:52:47;14.93;;;12.90;;
6019;SDS011;3038;51.122;6.840;2022-07-21T00:55:14;14.77;;;13.57;;
6019;SDS011;3038;51.122;6.840;2022-07-21T00:57:41;15.73;;;14.33;;
6019;SDS011;3038;51.122;6.840;2022-07-21T01:00:08;14.20;;;12.90;;
6019;SDS011;3038;51.122;6.840;2022-07-21T01:02:36;13.33;;;12.10;;
6019;SDS011;3038;51.122;6.840;2022-07-21T01:05:05;14.47;;;13.13;;
6019;SDS011;3038;51.122;6.840;2022-07-21T01:07:33;15.00;;;13.67;;
6019;SDS011;3038;51.122;6.840;2022-07-21T01:09:59;13.03;;;11.80;;
6019;SDS011;3038;51.122;6.840;2022-07-21T01:12:25;15.37;;;13.93;;
6019;SDS011;3038;51.122;6.840;2022-07-21T01:14:50;13.47;;;12.20;;
6019;SDS011;3038;51.122;6.840;2022-07-21T01:17:16;15.03;;;13.80;;
6019;SDS011;3038;51.122;6.840;2022-07-21T01:19:42;16.50;;;14.80;;
6019;SDS011;3038;51.122;6.840;2022-07-21T01:22:08;14.87;;;13.43;;
6019;SDS011;3038;51.122;6.840;2022-07-21T01:24:34;14.70;;;13.50;;
6019;SDS011;3038;51.122;6.840;2022-07-21T01:27:00;16.60;;;15.07;;
6019;SDS011;3038;51.122;6.840;2022-07-21T01:29:25;16.93;;;15.33;;
6019;SDS011;3038;51.122;6.840;2022-07-21T01:31:51;16.73;;;15.17;;
6019;SDS011;3038;51.122;6.840;2022-07-21T01:34:16;14.20;;;12.97;;
6019;SDS011;3038;51.122;6.840;2022-07-21T01:36:45;15.57;;;14.17;;
6019;SDS011;3038;51.122;6.840;2022-07-21T01:39:11;16.93;;;15.33;;
6019;SDS011;3038;51.122;6.840;2022-07-21T01:41:55;16.20;;;14.77;;
6019;SDS011;3038;51.122;6.840;2022-07-21T01:44:20;16.93;;;15.43;;
6019;SDS011;3038;51.122;6.840;2022-07-21T01:46:47;15.17;;;13.67;;
6019;SDS011;3038;51.122;6.840;2022-07-21T01:49:16;17.10;;;15.17;;
6019;SDS011;3038;51.122;6.840;2022-07-21T01:51:42;15.93;;;14.37;;
6019;SDS011;3038;51.122;6.840;2022-07-21T01:54:08;17.63;;;15.93;;
6019;SDS011;3038;51.122;6.840;2022-07-21T01:56:36;15.57;;;14.17;;
6019;SDS011;3038;51.122;6.840;2022-07-21T01:59:02;16.30;;;14.90;;
6019;SDS011;3038;51.122;6.840;2022-07-21T02:01:28;17.07;;;15.47;;
6019;SDS011;3038;51.122;6.840;2022-07-21T02:03:59;15.80;;;14.30;;
6019;SDS011;3038;51.122;6.840;2022-07-21T02:06:26;15.47;;;14.07;;
6019;SDS011;3038;51.122;6.840;2022-07-21T02:08:52;15.53;;;13.93;;
6019;SDS011;3038;51.122;6.840;2022-07-21T02:11:18;15.67;;;14.27;;
6019;SDS011;3038;51.122;6.840;2022-07-21T02:13:44;16.60;;;15.00;;
6019;SDS011;3038;51.122;6.840;2022-07-21T02:16:10;14.80;;;13.30;;
6019;SDS011;3038;51.122;6.840;2022-07-21T02:18:36;15.00;;;13.67;;
6019;SDS011;3038;51.122;6.840;2022-07-21T02:21:02;14.77;;;13.27;;
6019;SDS011;3038;51.122;6.840;2022-07-21T02:23:29;14.87;;;13.50;;
6019;SDS011;3038;51.122;6.840;2022-07-21T02:25:55;16.10;;;14.60;;
6019;SDS011;3038;51.122;6.840;2022-07-21T02:28:22;16.27;;;14.67;;
6019;SDS011;3038;51.122;6.840;2022-07-21T02:30:48;16.43;;;15.03;;
6019;SDS011;3038;51.122;6.840;2022-07-21T02:33:14;15.77;;;14.27;;
6019;SDS011;3038;51.122;6.840;2022-07-21T02:35:40;17.00;;;15.20;;
6019;SDS011;3038;51.122;6.840;2022-07-21T02:38:06;17.47;;;15.60;;
6019;SDS011;3038;51.122;6.840;2022-07-21T02:40:33;16.27;;;14.90;;
6019;SDS011;3038;51.122;6.840;2022-07-21T02:42:59;18.10;;;16.40;;
6019;SDS011;3038;51.122;6.840;2022-07-21T02:45:25;18.07;;;16.47;;
6019;SDS011;3038;51.122;6.840;2022-07-21T02:50:24;19.70;;;18.00;;
6019;SDS011;3038;51.122;6.840;2022-07-21T02:52:55;20.00;;;18.10;;
6019;SDS011;3038;51.122;6.840;2022-07-21T02:55:32;20.90;;;18.90;;
6019;SDS011;3038;51.122;6.840;2022-07-21T02:58:05;20.77;;;18.93;;
6019;SDS011;3038;51.122;6.840;2022-07-21T03:00:37;21.57;;;19.60;;
6019;SDS011;3038;51.122;6.840;2022-07-21T03:03:07;20.70;;;18.90;;
6019;SDS011;3038;51.122;6.840;2022-07-21T03:05:33;19.03;;;17.33;;
6019;SDS011;3038;51.122;6.840;2022-07-21T03:07:59;22.00;;;20.03;;
6019;SDS011;3038;51.122;6.840;2022-07-21T03:10:25;20.50;;;18.67;;
6019;SDS011;3038;51.122;6.840;2022-07-21T03:12:50;23.70;;;21.47;;
6019;SDS011;3038;51.122;6.840;2022-07-21T03:15:16;24.43;;;22.00;;
6019;SDS011;3038;51.122;6.840;2022-07-21T03:17:41;22.17;;;19.97;;
6019;SDS011;3038;51.122;6.840;2022-07-21T03:20:07;23.10;;;20.80;;
6019;SDS011;3038;51.122;6.840;2022-07-21T03:22:33;22.67;;;20.37;;
6019;SDS011;3038;51.122;6.840;2022-07-21T03:24:58;21.87;;;19.87;;
6019;SDS011;3038;51.122;6.840;2022-07-21T03:27:24;23.83;;;21.63;;
6019;SDS011;3038;51.122;6.840;2022-07-21T03:29:49;23.70;;;21.27;;
6019;SDS011;3038;51.122;6.840;2022-07-21T03:32:14;22.87;;;20.70;;
6019;SDS011;3038;51.122;6.840;2022-07-21T03:34:40;23.90;;;21.60;;
6019;SDS011;3038;51.122;6.840;2022-07-21T03:37:05;22.43;;;20.10;;
6019;SDS011;3038;51.122;6.840;2022-07-21T03:39:30;24.67;;;22.17;;
6019;SDS011;3038;51.122;6.840;2022-07-21T03:41:56;24.40;;;22.00;;
6019;SDS011;3038;51.122;6.840;2022-07-21T03:44:21;24.07;;;21.63;;
6019;SDS011;3038;51.122;6.840;2022-07-21T03:46:46;26.17;;;23.50;;
6019;SDS011;3038;51.122;6.840;2022-07-21T03:49:12;28.03;;;25.33;;
6019;SDS011;3038;51.122;6.840;2022-07-21T03:51:37;23.70;;;21.30;;
6019;SDS011;3038;51.122;6.840;2022-07-21T03:54:03;24.60;;;22.20;;
6019;SDS011;3038;51.122;6.840;2022-07-21T03:56:28;23.67;;;21.37;;
6019;SDS011;3038;51.122;6.840;2022-07-21T03:58:54;23.67;;;21.57;;
6019;SDS011;3038;51.122;6.840;2022-07-21T04:01:19;21.30;;;19.30;;
6019;SDS011;3038;51.122;6.840;2022-07-21T04:03:45;20.23;;;18.43;;
6019;SDS011;3038;51.122;6.840;2022-07-21T04:06:10;20.70;;;18.70;;
6019;SDS011;3038;51.122;6.840;2022-07-21T04:08:38;20.30;;;18.50;;
6019;SDS011;3038;51.122;6.840;2022-07-21T04:11:04;21.20;;;19.17;;
6019;SDS011;3038;51.122;6.840;2022-07-21T04:13:29;21.50;;;19.30;;
6019;SDS011;3038;51.122;6.840;2022-07-21T04:15:55;21.33;;;19.43;;
6019;SDS011;3038;51.122;6.840;2022-07-21T04:18:20;20.67;;;18.60;;
6019;SDS011;3038;51.122;6.840;2022-07-21T04:20:46;22.77;;;20.77;;
6019;SDS011;3038;51.122;6.840;2022-07-21T04:23:11;22.67;;;20.00;;
6019;SDS011;3038;51.122;6.840;2022-07-21T04:25:36;22.43;;;20.13;;
6019;SDS011;3038;51.122;6.840;2022-07-21T04:28:04;22.00;;;19.90;;
6019;SDS011;3038;51.122;6.840;2022-07-21T04:30:30;20.53;;;18.73;;
6019;SDS011;3038;51.122;6.840;2022-07-21T04:32:56;18.87;;;17.10;;
6019;SDS011;3038;51.122;6.840;2022-07-21T04:35:21;18.57;;;16.80;;
6019;SDS011;3038;51.122;6.840;2022-07-21T04:37:48;21.23;;;19.10;;
6019;SDS011;3038;51.122;6.840;2022-07-21T04:40:17;19.97;;;18.27;;
6019;SDS011;3038;51.122;6.840;2022-07-21T04:42:43;21.27;;;19.10;;
6019;SDS011;3038;51.122;6.840;2022-07-21T04:45:10;19.67;;;18.07;;
6019;SDS011;3038;51.122;6.840;2022-07-21T04:47:43;18.53;;;16.90;;
6019;SDS011;3038;51.122;6.840;2022-07-21T04:50:09;19.27;;;17.57;;
6019;SDS011;3038;51.122;6.840;2022-07-21T04:52:34;18.27;;;16.67;;
6019;SDS011;3038;51.122;6.840;2022-07-21T04:55:00;18.73;;;17.13;;
6019;SDS011;3038;51.122;6.840;2022-07-21T04:57:26;17.10;;;15.57;;
6019;SDS011;3038;51.122;6.840;2022-07-21T04:59:51;17.00;;;15.60;;
6019;SDS011;3038;51.122;6.840;2022-07-21T05:02:17;18.17;;;16.67;;
6019;SDS011;3038;51.122;6.840;2022-07-21T05:04:42;18.00;;;16.30;;
6019;SDS011;3038;51.122;6.840;2022-07-21T05:07:08;17.37;;;15.90;;
6019;SDS011;3038;51.122;6.840;2022-07-21T05:09:34;19.00;;;17.37;;
6019;SDS011;3038;51.122;6.840;2022-07-21T05:12:00;19.63;;;17.53;;
6019;SDS011;3038;51.122;6.840;2022-07-21T05:14:25;21.03;;;17.00;;
6019;SDS011;3038;51.122;6.840;2022-07-21T05:16:50;19.53;;;17.50;;
6019;SDS011;3038;51.122;6.840;2022-07-21T05:19:16;17.97;;;16.30;;
6019;SDS011;3038;51.122;6.840;2022-07-21T05:21:41;17.07;;;15.53;;
6019;SDS011;3038;51.122;6.840;2022-07-21T05:24:07;17.90;;;16.40;;
6019;SDS011;3038;51.122;6.840;2022-07-21T05:26:34;16.63;;;15.33;;
6019;SDS011;3038;51.122;6.840;2022-07-21T05:28:59;17.80;;;16.30;;
6019;SDS011;3038;51.122;6.840;2022-07-21T05:31:24;17.57;;;15.77;;
6019;SDS011;3038;51.122;6.840;2022-07-21T05:33:50;16.10;;;14.50;;
6019;SDS011;3038;51.122;6.840;2022-07-21T05:36:15;16.90;;;15.30;;
6019;SDS011;3038;51.122;6.840;2022-07-21T05:38:40;17.10;;;15.40;;
6019;SDS011;3038;51.122;6.840;2022-07-21T05:41:06;16.30;;;14.87;;
6019;SDS011;3038;51.122;6.840;2022-07-21T05:43:31;15.83;;;14.43;;
6019;SDS011;3038;51.122;6.840;2022-07-21T05:45:57;15.40;;;14.10;;
6019;SDS011;3038;51.122;6.840;2022-07-21T05:48:23;15.17;;;13.67;;
6019;SDS011;3038;51.122;6.840;2022-07-21T05:50:49;15.97;;;14.63;;
6019;SDS011;3038;51.122;6.840;2022-07-21T05:53:14;15.87;;;14.27;;
6019;SDS011;3038;51.122;6.840;2022-07-21T05:55:40;16.03;;;14.80;;
6019;SDS011;3038;51.122;6.840;2022-07-21T05:58:05;14.80;;;13.60;;
6019;SDS011;3038;51.122;6.840;2022-07-21T06:00:31;16.33;;;14.80;;
6019;SDS011;3038;51.122;6.840;2022-07-21T06:02:56;15.83;;;14.53;;
6019;SDS011;3038;51.122;6.840;2022-07-21T06:05:21;17.17;;;15.67;;
6019;SDS011;3038;51.122;6.840;2022-07-21T06:07:47;15.67;;;14.03;;
6019;SDS011;3038;51.122;6.840;2022-07-21T06:10:13;15.80;;;14.43;;
6019;SDS011;3038;51.122;6.840;2022-07-21T06:12:39;16.20;;;14.70;;
6019;SDS011;3038;51.122;6.840;2022-07-21T06:15:05;17.23;;;15.73;;
6019;SDS011;3038;51.122;6.840;2022-07-21T06:17:37;17.00;;;15.33;;
6019;SDS011;3038;51.122;6.840;2022-07-21T06:20:11;16.43;;;15.13;;
6019;SDS011;3038;51.122;6.840;2022-07-21T06:22:37;15.60;;;14.20;;
6019;SDS011;3038;51.122;6.840;2022-07-21T06:25:03;17.53;;;15.73;;
6019;SDS011;3038;51.122;6.840;2022-07-21T06:27:30;15.87;;;14.27;;
6019;SDS011;3038;51.122;6.840;2022-07-21T06:29:57;16.97;;;15.37;;
6019;SDS011;3038;51.122;6.840;2022-07-21T06:32:24;16.73;;;15.33;;
6019;SDS011;3038;51.122;6.840;2022-07-21T06:34:49;17.93;;;16.20;;
6019;SDS011;3038;51.122;6.840;2022-07-21T06:37:15;14.83;;;13.63;;
6019;SDS011;3038;51.122;6.840;2022-07-21T06:39:40;17.60;;;15.83;;
6019;SDS011;3038;51.122;6.840;2022-07-21T06:42:06;14.77;;;13.50;;
6019;SDS011;3038;51.122;6.840;2022-07-21T06:44:33;14.57;;;13.27;;
6019;SDS011;3038;51.122;6.840;2022-07-21T06:46:58;15.20;;;13.90;;
6019;SDS011;3038;51.122;6.840;2022-07-21T06:49:29;13.17;;;12.07;;
6019;SDS011;3038;51.122;6.840;2022-07-21T06:51:57;15.13;;;13.83;;
6019;SDS011;3038;51.122;6.840;2022-07-21T06:54:23;14.67;;;13.37;;
6019;SDS011;3038;51.122;6.840;2022-07-21T06:56:48;13.50;;;12.40;;
6019;SDS011;3038;51.122;6.840;2022-07-21T06:59:13;14.30;;;13.10;;
6019;SDS011;3038;51.122;6.840;2022-07-21T07:01:39;14.03;;;12.80;;
6019;SDS011;3038;51.122;6.840;2022-07-21T07:04:04;14.90;;;13.60;;
6019;SDS011;3038;51.122;6.840;2022-07-21T07:06:29;14.70;;;13.33;;
6019;SDS011;3038;51.122;6.840;2022-07-21T07:08:55;14.33;;;12.97;;
6019;SDS011;3038;51.122;6.840;2022-07-21T07:11:20;15.20;;;12.90;;
6019;SDS011;3038;51.122;6.840;2022-07-21T07:13:46;13.83;;;12.63;;
6019;SDS011;3038;51.122;6.840;2022-07-21T07:16:12;14.83;;;13.43;;
6019;SDS011;3038;51.122;6.840;2022-07-21T07:18:37;14.23;;;12.97;;
6019;SDS011;3038;51.122;6.840;2022-07-21T07:21:05;13.90;;;12.70;;
6019;SDS011;3038;51.122;6.840;2022-07-21T07:23:31;14.90;;;13.60;;
6019;SDS011;3038;51.122;6.840;2022-07-21T07:25:56;13.93;;;12.60;;
6019;SDS011;3038;51.122;6.840;2022-07-21T07:28:22;12.00;;;11.10;;
6019;SDS011;3038;51.122;6.840;2022-07-21T07:30:47;12.87;;;11.67;;
6019;SDS011;3038;51.122;6.840;2022-07-21T07:33:13;13.77;;;12.57;;
6019;SDS011;3038;51.122;6.840;2022-07-21T07:35:39;11.13;;;10.33;;
6019;SDS011;3038;51.122;6.840;2022-07-21T07:38:04;13.10;;;12.10;;
6019;SDS011;3038;51.122;6.840;2022-07-21T07:40:30;12.50;;;11.47;;
6019;SDS011;3038;51.122;6.840;2022-07-21T07:42:55;11.17;;;10.27;;
6019;SDS011;3038;51.122;6.840;2022-07-21T07:45:21;12.50;;;11.47;;
6019;SDS011;3038;51.122;6.840;2022-07-21T07:47:46;12.13;;;11.23;;
6019;SDS011;3038;51.122;6.840;2022-07-21T07:50:12;10.70;;;9.60;;
6019;SDS011;3038;51.122;6.840;2022-07-21T07:52:39;12.67;;;11.50;;
6019;SDS011;3038;51.122;6.840;2022-07-21T07:55:07;11.53;;;10.47;;
6019;SDS011;3038;51.122;6.840;2022-07-21T07:57:35;10.50;;;9.70;;
6019;SDS011;3038;51.122;6.840;2022-07-21T08:00:02;10.87;;;9.87;;
6019;SDS011;3038;51.122;6.840;2022-07-21T08:02:29;10.83;;;10.03;;
6019;SDS011;3038;51.122;6.840;2022-07-21T08:04:55;10.43;;;9.53;;
6019;SDS011;3038;51.122;6.840;2022-07-21T08:07:20;12.00;;;11.10;;
6019;SDS011;3038;51.122;6.840;2022-07-21T08:09:45;11.50;;;10.70;;
6019;SDS011;3038;51.122;6.840;2022-07-21T08:12:11;12.70;;;10.40;;
6019;SDS011;3038;51.122;6.840;2022-07-21T08:14:36;10.83;;;9.93;;
6019;SDS011;3038;51.122;6.840;2022-07-21T08:17:02;11.30;;;10.23;;
6019;SDS011;3038;51.122;6.840;2022-07-21T08:19:27;12.07;;;11.03;;
6019;SDS011;3038;51.122;6.840;2022-07-21T08:21:52;11.23;;;10.37;;
6019;SDS011;3038;51.122;6.840;2022-07-21T08:24:18;12.47;;;11.10;;
6019;SDS011;3038;51.122;6.840;2022-07-21T08:26:43;11.77;;;10.53;;
6019;SDS011;3038;51.122;6.840;2022-07-21T08:29:09;11.20;;;10.20;;
6019;SDS011;3038;51.122;6.840;2022-07-21T08:31:35;11.23;;;10.33;;
6019;SDS011;3038;51.122;6.840;2022-07-21T08:34:00;11.63;;;10.73;;
6019;SDS011;3038;51.122;6.840;2022-07-21T08:36:25;12.50;;;11.50;;
6019;SDS011;3038;51.122;6.840;2022-07-21T08:38:51;11.60;;;10.60;;
6019;SDS011;3038;51.122;6.840;2022-07-21T08:41:16;11.40;;;10.50;;
6019;SDS011;3038;51.122;6.840;2022-07-21T08:43:42;12.63;;;11.53;;
6019;SDS011;3038;51.122;6.840;2022-07-21T08:46:07;12.30;;;11.23;;
6019;SDS011;3038;51.122;6.840;2022-07-21T08:48:34;12.47;;;11.47;;
6019;SDS011;3038;51.122;6.840;2022-07-21T08:51:00;12.67;;;11.70;;
6019;SDS011;3038;51.122;6.840;2022-07-21T08:53:26;11.80;;;10.90;;
6019;SDS011;3038;51.122;6.840;2022-07-21T08:55:53;11.80;;;10.90;;
6019;SDS011;3038;51.122;6.840;2022-07-21T08:58:19;12.63;;;11.60;;
6019;SDS011;3038;51.122;6.840;2022-07-21T09:00:45;12.20;;;11.30;;
6019;SDS011;3038;51.122;6.840;2022-07-21T09:06:07;13.30;;;12.30;;
6019;SDS011;3038;51.122;6.840;2022-07-21T09:08:44;13.97;;;12.83;;
6019;SDS011;3038;51.122;6.840;2022-07-21T09:13:47;13.70;;;12.40;;
6019;SDS011;3038;51.122;6.840;2022-07-21T09:16:22;11.43;;;10.47;;
6019;SDS011;3038;51.122;6.840;2022-07-21T09:18:57;11.30;;;10.10;;
6019;SDS011;3038;51.122;6.840;2022-07-21T09:21:23;9.70;;;8.90;;
6019;SDS011;3038;51.122;6.840;2022-07-21T09:23:49;10.07;;;9.17;;
6019;SDS011;3038;51.122;6.840;2022-07-21T09:26:14;9.20;;;8.50;;
6019;SDS011;3038;51.122;6.840;2022-07-21T09:28:40;9.50;;;8.70;;
6019;SDS011;3038;51.122;6.840;2022-07-21T09:31:10;11.60;;;10.53;;
6019;SDS011;3038;51.122;6.840;2022-07-21T09:33:40;11.43;;;10.53;;
6019;SDS011;3038;51.122;6.840;2022-07-21T09:36:08;12.03;;;11.03;;
6019;SDS011;3038;51.122;6.840;2022-07-21T09:38:35;10.97;;;10.13;;
6019;SDS011;3038;51.122;6.840;2022-07-21T09:41:22;12.70;;;10.40;;
6019;SDS011;3038;51.122;6.840;2022-07-21T09:43:49;11.30;;;10.40;;
6019;SDS011;3038;51.122;6.840;2022-07-21T09:46:17;11.13;;;10.30;;
6019;SDS011;3038;51.122;6.840;2022-07-21T09:48:48;12.03;;;11.17;;
6019;SDS011;3038;51.122;6.840;2022-07-21T09:53:49;12.67;;;11.67;;
6019;SDS011;3038;51.122;6.840;2022-07-21T09:56:16;12.23;;;11.23;;
6019;SDS011;3038;51.122;6.840;2022-07-21T09:58:43;12.60;;;11.60;;
6019;SDS011;3038;51.122;6.840;2022-07-21T10:01:14;11.60;;;10.70;;
6019;SDS011;3038;51.122;6.840;2022-07-21T10:03:39;12.20;;;11.20;;
6019;SDS011;3038;51.122;6.840;2022-07-21T10:06:10;11.87;;;10.73;;
6019;SDS011;3038;51.122;6.840;2022-07-21T10:08:37;11.13;;;10.40;;
6019;SDS011;3038;51.122;6.840;2022-07-21T10:11:04;11.10;;;10.10;;
6019;SDS011;3038;51.122;6.840;2022-07-21T10:13:30;11.50;;;10.63;;
6019;SDS011;3038;51.122;6.840;2022-07-21T10:15:56;10.73;;;9.87;;
6019;SDS011;3038;51.122;6.840;2022-07-21T10:18:24;10.60;;;9.70;;
6019;SDS011;3038;51.122;6.840;2022-07-21T10:20:54;10.60;;;9.60;;
6019;SDS011;3038;51.122;6.840;2022-07-21T10:26:06;10.17;;;9.17;;
6019;SDS011;3038;51.122;6.840;2022-07-21T10:28:33;9.73;;;9.03;;
6019;SDS011;3038;51.122;6.840;2022-07-21T10:30:59;10.47;;;9.47;;
6019;SDS011;3038;51.122;6.840;2022-07-21T10:36:10;11.00;;;9.97;;
6019;SDS011;3038;51.122;6.840;2022-07-21T10:41:46;12.33;;;11.33;;
6019;SDS011;3038;51.122;6.840;2022-07-21T10:47:05;14.63;;;13.23;;
6019;SDS011;3038;51.122;6.840;2022-07-21T10:49:49;13.73;;;12.70;;
6019;SDS011;3038;51.122;6.840;2022-07-21T10:57:40;15.17;;;13.93;;
6019;SDS011;3038;51.122;6.840;2022-07-21T11:02:56;17.33;;;15.83;;
6019;SDS011;3038;51.122;6.840;2022-07-21T11:05:23;19.37;;;16.80;;
6019;SDS011;3038;51.122;6.840;2022-07-21T11:10:38;18.80;;;17.20;;
6019;SDS011;3038;51.122;6.840;2022-07-21T11:13:06;17.67;;;15.70;;
6019;SDS011;3038;51.122;6.840;2022-07-21T11:18:32;18.27;;;16.67;;
6019;SDS011;3038;51.122;6.840;2022-07-21T11:21:01;16.63;;;15.07;;
6019;SDS011;3038;51.122;6.840;2022-07-21T11:23:37;17.67;;;15.87;;
6019;SDS011;3038;51.122;6.840;2022-07-21T11:26:04;18.20;;;16.60;;
6019;SDS011;3038;51.122;6.840;2022-07-21T11:28:30;17.33;;;15.70;;
6019;SDS011;3038;51.122;6.840;2022-07-21T11:31:15;17.47;;;15.77;;
6019;SDS011;3038;51.122;6.840;2022-07-21T11:33:45;17.47;;;15.87;;
6019;SDS011;3038;51.122;6.840;2022-07-21T11:36:23;18.27;;;16.70;;
6019;SDS011;3038;51.122;6.840;2022-07-21T11:39:04;18.87;;;17.17;;
6019;SDS011;3038;51.122;6.840;2022-07-21T11:41:31;17.33;;;14.27;;
6019;SDS011;3038;51.122;6.840;2022-07-21T11:43:57;18.57;;;16.87;;
6019;SDS011;3038;51.122;6.840;2022-07-21T11:46:23;18.13;;;16.67;;
6019;SDS011;3038;51.122;6.840;2022-07-21T11:48:59;18.00;;;16.40;;
6019;SDS011;3038;51.122;6.840;2022-07-21T11:51:26;16.23;;;14.83;;
6019;SDS011;3038;51.122;6.840;2022-07-21T11:53:51;14.77;;;13.50;;
6019;SDS011;3038;51.122;6.840;2022-07-21T11:56:16;15.03;;;13.57;;
6019;SDS011;3038;51.122;6.840;2022-07-21T11:58:42;18.93;;;17.13;;
6019;SDS011;3038;51.122;6.840;2022-07-21T12:01:09;16.97;;;15.17;;
6019;SDS011;3038;51.122;6.840;2022-07-21T12:03:35;15.63;;;14.03;;
6019;SDS011;3038;51.122;6.840;2022-07-21T12:06:12;17.17;;;15.63;;
6019;SDS011;3038;51.122;6.840;2022-07-21T12:08:38;14.13;;;12.83;;
6019;SDS011;3038;51.122;6.840;2022-07-21T12:11:07;13.60;;;12.50;;
6019;SDS011;3038;51.122;6.840;2022-07-21T12:13:55;14.20;;;12.83;;
6019;SDS011;3038;51.122;6.840;2022-07-21T12:16:22;11.90;;;11.00;;
6019;SDS011;3038;51.122;6.840;2022-07-21T12:18:48;10.50;;;9.67;;
6019;SDS011;3038;51.122;6.840;2022-07-21T12:21:13;11.90;;;10.80;;
6019;SDS011;3038;51.122;6.840;2022-07-21T12:23:38;11.83;;;10.83;;
6019;SDS011;3038;51.122;6.840;2022-07-21T12:26:04;10.23;;;9.33;;
6019;SDS011;3038;51.122;6.840;2022-07-21T12:28:43;11.13;;;10.23;;
6019;SDS011;3038;51.122;6.840;2022-07-21T12:31:12;10.87;;;9.83;;
6019;SDS011;3038;51.122;6.840;2022-07-21T12:33:41;12.83;;;10.67;;
6019;SDS011;3038;51.122;6.840;2022-07-21T12:36:08;12.37;;;11.10;;
6019;SDS011;3038;51.122;6.840;2022-07-21T12:38:44;13.07;;;11.87;;
6019;SDS011;3038;51.122;6.840;2022-07-21T12:41:20;12.50;;;11.23;;
6019;SDS011;3038;51.122;6.840;2022-07-21T12:43:56;11.50;;;10.50;;
6019;SDS011;3038;51.122;6.840;2022-07-21T12:46:27;12.57;;;11.37;;
6019;SDS011;3038;51.122;6.840;2022-07-21T12:49:02;12.33;;;11.23;;
6019;SDS011;3038;51.122;6.840;2022-07-21T12:51:31;12.77;;;11.77;;
6019;SDS011;3038;51.122;6.840;2022-07-21T12:53:56;11.80;;;10.83;;
6019;SDS011;3038;51.122;6.840;2022-07-21T12:56:23;15.50;;;12.00;;
6019;SDS011;3038;51.122;6.840;2022-07-21T12:58:50;11.03;;;10.20;;
6019;SDS011;3038;51.122;6.840;2022-07-21T13:01:17;12.20;;;11.10;;
6019;SDS011;3038;51.122;6.840;2022-07-21T13:03:44;10.97;;;9.50;;
6019;SDS011;3038;51.122;6.840;2022-07-21T13:06:10;8.90;;;7.70;;
6019;SDS011;3038;51.122;6.840;2022-07-21T13:08:39;6.73;;;6.13;;
6019;SDS011;3038;51.122;6.840;2022-07-21T13:11:06;6.53;;;6.03;;
6019;SDS011;3038;51.122;6.840;2022-07-21T13:13:32;8.97;;;8.37;;
6019;SDS011;3038;51.122;6.840;2022-07-21T13:15:58;10.03;;;9.13;;
6019;SDS011;3038;51.122;6.840;2022-07-21T13:18:23;10.50;;;9.60;;
6019;SDS011;3038;51.122;6.840;2022-07-21T13:20:49;12.30;;;11.30;;
6019;SDS011;3038;51.122;6.840;2022-07-21T13:23:16;13.20;;;11.90;;
6019;SDS011;3038;51.122;6.840;2022-07-21T13:25:42;14.00;;;12.70;;
6019;SDS011;3038;51.122;6.840;2022-07-21T13:28:08;14.70;;;13.50;;
6019;SDS011;3038;51.122;6.840;2022-07-21T13:30:33;17.27;;;15.47;;
6019;SDS011;3038;51.122;6.840;2022-07-21T13:32:58;15.77;;;14.33;;
6019;SDS011;3038;51.122;6.840;2022-07-21T13:35:24;17.00;;;15.40;;
6019;SDS011;3038;51.122;6.840;2022-07-21T13:37:50;17.67;;;15.97;;
6019;SDS011;3038;51.122;6.840;2022-07-21T13:40:15;18.37;;;16.57;;
6019;SDS011;3038;51.122;6.840;2022-07-21T13:42:41;20.00;;;18.00;;
6019;SDS011;3038;51.122;6.840;2022-07-21T13:45:06;18.97;;;17.17;;
6019;SDS011;3038;51.122;6.840;2022-07-21T13:47:33;19.00;;;17.20;;
6019;SDS011;3038;51.122;6.840;2022-07-21T13:49:59;20.53;;;18.53;;
6019;SDS011;3038;51.122;6.840;2022-07-21T13:52:24;19.23;;;17.23;;
6019;SDS011;3038;51.122;6.840;2022-07-21T13:54:50;21.83;;;19.63;;
6019;SDS011;3038;51.122;6.840;2022-07-21T13:57:15;21.03;;;19.07;;
6019;SDS011;3038;51.122;6.840;2022-07-21T13:59:40;21.90;;;19.60;;
6019;SDS011;3038;51.122;6.840;2022-07-21T14:02:06;19.60;;;17.60;;
6019;SDS011;3038;51.122;6.840;2022-07-21T14:04:32;21.67;;;19.37;;
6019;SDS011;3038;51.122;6.840;2022-07-21T14:06:57;24.53;;;21.83;;
6019;SDS011;3038;51.122;6.840;2022-07-21T14:09:22;24.00;;;21.50;;
6019;SDS011;3038;51.122;6.840;2022-07-21T14:11:48;24.70;;;21.50;;
6019;SDS011;3038;51.122;6.840;2022-07-21T14:14:14;23.73;;;21.23;;
6019;SDS011;3038;51.122;6.840;2022-07-21T14:16:46;22.60;;;20.27;;
6019;SDS011;3038;51.122;6.840;2022-07-21T14:19:11;24.83;;;22.10;;
6019;SDS011;3038;51.122;6.840;2022-07-21T14:21:36;24.97;;;22.60;;
6019;SDS011;3038;51.122;6.840;2022-07-21T14:24:02;24.97;;;22.37;;
6019;SDS011;3038;51.122;6.840;2022-07-21T14:26:46;23.10;;;20.97;;
6019;SDS011;3038;51.122;6.840;2022-07-21T14:29:11;25.50;;;22.60;;
6019;SDS011;3038;51.122;6.840;2022-07-21T14:31:37;25.13;;;21.90;;
6019;SDS011;3038;51.122;6.840;2022-07-21T14:34:02;27.00;;;22.50;;
6019;SDS011;3038;51.122;6.840;2022-07-21T14:36:28;28.60;;;25.03;;
6019;SDS011;3038;51.122;6.840;2022-07-21T14:38:53;23.70;;;21.20;;
6019;SDS011;3038;51.122;6.840;2022-07-21T14:41:19;31.07;;;22.70;;
6019;SDS011;3038;51.122;6.840;2022-07-21T14:43:44;24.83;;;22.30;;
6019;SDS011;3038;51.122;6.840;2022-07-21T14:46:10;23.57;;;21.07;;
6019;SDS011;3038;51.122;6.840;2022-07-21T14:48:36;20.80;;;18.60;;
6019;SDS011;3038;51.122;6.840;2022-07-21T14:51:01;19.30;;;16.67;;
6019;SDS011;3038;51.122;6.840;2022-07-21T14:53:27;18.97;;;16.40;;
6019;SDS011;3038;51.122;6.840;2022-07-21T14:55:52;14.07;;;12.63;;
6019;SDS011;3038;51.122;6.840;2022-07-21T14:58:17;13.27;;;11.60;;
6019;SDS011;3038;51.122;6.840;2022-07-21T15:00:43;13.47;;;12.20;;
6019;SDS011;3038;51.122;6.840;2022-07-21T15:03:08;15.00;;;13.67;;
6019;SDS011;3038;51.122;6.840;2022-07-21T15:05:34;13.03;;;11.93;;
6019;SDS011;3038;51.122;6.840;2022-07-21T15:07:59;14.00;;;12.80;;
6019;SDS011;3038;51.122;6.840;2022-07-21T15:10:24;15.93;;;14.43;;
6019;SDS011;3038;51.122;6.840;2022-07-21T15:12:50;13.93;;;12.73;;
6019;SDS011;3038;51.122;6.840;2022-07-21T15:15:15;14.10;;;12.87;;
6019;SDS011;3038;51.122;6.840;2022-07-21T15:17:41;14.70;;;13.30;;
6019;SDS011;3038;51.122;6.840;2022-07-21T15:20:07;12.40;;;11.40;;
6019;SDS011;3038;51.122;6.840;2022-07-21T15:22:33;15.10;;;12.70;;